Time;durP1;ratioP1;P1;durP2;ratioP2;P2;SDS_P1;SDS_P2;PMS_P1;PMS_P2;Temp;Humidity;BMP_temperature;BMP_pressure;BME280_temperature;BME280_humidity;BME280_pressure;Samples;Min_cycle;Max_cycle;Signal;HPM_P1;HPM_P2
2022/03/14 00:00:19;;;;;;;15.48;2.30;;;;;;;;;;4943859;28;20054;-83
2022/03/14 00:02:48;;;;;;;9.10;1.50;;;;;;;;;;4941853;28;20039;-83
2022/03/14 00:05:17;;;;;;;14.70;2.15;;;;;;;;;;4943959;28;20035;-81
2022/03/14 00:07:47;;;;;;;5.07;1.08;;;;;;;;;;4958499;28;20038;-85
2022/03/14 00:10:16;;;;;;;10.18;1.48;;;;;;;;;;4948028;28;20039;-83
2022/03/14 00:12:48;;;;;;;6.43;1.40;;;;;;;;;;4983237;28;20126;-83
2022/03/14 00:15:15;;;;;;;12.18;2.15;;;;;;;;;;4949271;28;20138;-86
2022/03/14 00:17:45;;;;;;;17.58;2.70;;;;;;;;;;4965074;28;20031;-81
2022/03/14 00:20:12;;;;;;;14.70;1.85;;;;;;;;;;4961173;28;20035;-82
2022/03/14 00:22:39;;;;;;;13.13;2.22;;;;;;;;;;4951666;28;20114;-82
2022/03/14 00:25:05;;;;;;;9.15;1.10;;;;;;;;;;4961611;28;20034;-83
2022/03/14 00:27:31;;;;;;;9.70;1.55;;;;;;;;;;4946038;28;20034;-85
2022/03/14 00:29:57;;;;;;;13.85;2.00;;;;;;;;;;4961205;28;20057;-82
2022/03/14 00:32:23;;;;;;;8.18;2.10;;;;;;;;;;4958779;28;20125;-84
2022/03/14 00:34:49;;;;;;;6.50;1.42;;;;;;;;;;4933046;28;20058;-82
2022/03/14 00:37:15;;;;;;;16.58;1.85;;;;;;;;;;4940588;28;20039;-85
2022/03/14 00:39:41;;;;;;;5.75;1.35;;;;;;;;;;4967902;28;20057;-83
2022/03/14 00:42:07;;;;;;;16.42;2.38;;;;;;;;;;4963583;28;20047;-86
2022/03/14 00:44:32;;;;;;;14.85;2.15;;;;;;;;;;4947158;28;20058;-86
2022/03/14 00:46:58;;;;;;;9.45;1.70;;;;;;;;;;4947048;28;20034;-85
2022/03/14 00:49:23;;;;;;;17.35;1.92;;;;;;;;;;4946761;28;20034;-86
2022/03/14 00:51:49;;;;;;;12.38;1.30;;;;;;;;;;4951678;28;20092;-83
2022/03/14 00:54:14;;;;;;;15.00;1.80;;;;;;;;;;4957860;28;20526;-86
2022/03/14 00:56:40;;;;;;;21.92;2.15;;;;;;;;;;4946463;28;20491;-82
2022/03/14 00:59:05;;;;;;;11.45;1.40;;;;;;;;;;4945674;28;20126;-84
2022/03/14 01:01:31;;;;;;;10.50;1.55;;;;;;;;;;4964279;28;20055;-81
2022/03/14 01:03:58;;;;;;;4.75;1.10;;;;;;;;;;4967370;28;20046;-84
2022/03/14 01:06:24;;;;;;;10.07;1.23;;;;;;;;;;4961750;28;20121;-85
2022/03/14 01:08:49;;;;;;;7.57;1.85;;;;;;;;;;4960162;28;20042;-82
2022/03/14 01:11:15;;;;;;;12.02;1.65;;;;;;;;;;4938421;28;20423;-82
2022/03/14 01:13:40;;;;;;;13.60;2.13;;;;;;;;;;4978563;28;20061;-85
2022/03/14 01:16:06;;;;;;;14.57;2.03;;;;;;;;;;4942134;28;20125;-87
2022/03/14 01:18:32;;;;;;;4.50;1.00;;;;;;;;;;4955759;28;20041;-86
2022/03/14 01:20:57;;;;;;;7.95;1.60;;;;;;;;;;4953192;28;20026;-83
2022/03/14 01:23:23;;;;;;;8.80;1.65;;;;;;;;;;4967328;28;20031;-81
2022/03/14 01:25:49;;;;;;;12.57;1.55;;;;;;;;;;4983824;28;20110;-82
2022/03/14 01:28:15;;;;;;;12.77;1.80;;;;;;;;;;4965103;28;20037;-83
2022/03/14 01:30:43;;;;;;;11.98;1.48;;;;;;;;;;4971587;28;20022;-83
2022/03/14 01:33:09;;;;;;;9.43;1.35;;;;;;;;;;4987954;28;20467;-85
2022/03/14 01:35:36;;;;;;;15.63;1.77;;;;;;;;;;4957666;28;20137;-82
2022/03/14 01:38:02;;;;;;;13.07;2.53;;;;;;;;;;4967616;28;20125;-82
2022/03/14 01:40:31;;;;;;;21.38;2.28;;;;;;;;;;4967820;28;20053;-85
2022/03/14 01:42:57;;;;;;;9.63;1.27;;;;;;;;;;4963469;28;20042;-84
2022/03/14 01:45:23;;;;;;;10.30;1.73;;;;;;;;;;4969709;28;20038;-84
2022/03/14 01:47:49;;;;;;;16.33;2.22;;;;;;;;;;4966656;28;20030;-83
2022/03/14 01:50:16;;;;;;;12.15;1.88;;;;;;;;;;4965619;28;20048;-85
2022/03/14 01:52:43;;;;;;;17.48;2.22;;;;;;;;;;4989409;28;20463;-85
2022/03/14 01:55:10;;;;;;;15.57;1.67;;;;;;;;;;4986729;28;20042;-86
2022/03/14 01:57:37;;;;;;;15.00;1.75;;;;;;;;;;4949695;28;20038;-83
2022/03/14 02:00:08;;;;;;;19.60;1.90;;;;;;;;;;4965922;28;20038;-85
2022/03/14 02:02:34;;;;;;;5.93;1.25;;;;;;;;;;4967654;28;20090;-84
2022/03/14 02:04:59;;;;;;;16.95;1.90;;;;;;;;;;4967322;28;20553;-83
2022/03/14 02:07:26;;;;;;;9.10;1.17;;;;;;;;;;4966305;28;20045;-83
2022/03/14 02:09:51;;;;;;;13.68;1.50;;;;;;;;;;4962512;28;20031;-83
2022/03/14 02:12:18;;;;;;;9.85;1.27;;;;;;;;;;4964990;28;20039;-83
2022/03/14 02:14:43;;;;;;;12.95;1.73;;;;;;;;;;4951687;28;20033;-85
2022/03/14 02:17:12;;;;;;;10.43;1.30;;;;;;;;;;4964565;28;20041;-84
2022/03/14 02:19:38;;;;;;;10.18;1.50;;;;;;;;;;4972230;28;20037;-84
2022/03/14 02:22:05;;;;;;;11.70;1.33;;;;;;;;;;4951981;28;20073;-85
2022/03/14 02:24:31;;;;;;;16.98;1.95;;;;;;;;;;4965852;28;20024;-85
2022/03/14 02:26:57;;;;;;;11.30;1.92;;;;;;;;;;4970559;28;20034;-84
2022/03/14 02:29:25;;;;;;;14.70;1.73;;;;;;;;;;4982593;28;20037;-86
2022/03/14 02:31:52;;;;;;;19.55;2.92;;;;;;;;;;4954549;28;20170;-85
2022/03/14 02:34:18;;;;;;;12.38;1.50;;;;;;;;;;4950085;28;20122;-85
2022/03/14 02:36:44;;;;;;;7.57;1.73;;;;;;;;;;4985731;28;20109;-89
2022/03/14 02:39:09;;;;;;;9.95;1.08;;;;;;;;;;4967692;28;20034;-84
2022/03/14 02:41:36;;;;;;;9.10;2.17;;;;;;;;;;4934626;28;20042;-82
2022/03/14 02:44:06;;;;;;;12.93;1.55;;;;;;;;;;4982932;28;20030;-83
2022/03/14 02:46:34;;;;;;;12.60;1.75;;;;;;;;;;4986518;28;20740;-81
2022/03/14 02:49:00;;;;;;;19.35;1.55;;;;;;;;;;4968600;28;20042;-84
2022/03/14 02:51:26;;;;;;;20.92;1.65;;;;;;;;;;4949395;28;20162;-86
2022/03/14 02:53:52;;;;;;;22.60;1.88;;;;;;;;;;4969134;28;20549;-80
2022/03/14 02:56:20;;;;;;;12.70;1.92;;;;;;;;;;4938929;28;20096;-84
2022/03/14 02:58:47;;;;;;;6.78;1.40;;;;;;;;;;4950108;28;20026;-84
2022/03/14 03:01:14;;;;;;;6.15;1.08;;;;;;;;;;4952203;28;20116;-82
2022/03/14 03:03:40;;;;;;;9.70;1.52;;;;;;;;;;4954866;28;20050;-82
2022/03/14 03:06:07;;;;;;;7.78;0.93;;;;;;;;;;4952778;28;20033;-81
2022/03/14 03:08:33;;;;;;;8.35;1.45;;;;;;;;;;4953161;28;20449;-85
2022/03/14 03:10:59;;;;;;;18.65;1.38;;;;;;;;;;4963599;28;20031;-82
2022/03/14 03:13:28;;;;;;;9.93;1.20;;;;;;;;;;4955691;28;20042;-84
2022/03/14 03:15:54;;;;;;;9.15;1.02;;;;;;;;;;4936627;28;20531;-83
2022/03/14 03:18:19;;;;;;;7.70;1.60;;;;;;;;;;4991043;28;20033;-82
2022/03/14 03:20:45;;;;;;;13.48;1.67;;;;;;;;;;4936387;28;20039;-82
2022/03/14 03:23:11;;;;;;;8.07;1.20;;;;;;;;;;4966544;28;20046;-83
2022/03/14 03:25:36;;;;;;;10.50;1.45;;;;;;;;;;4953609;28;20555;-82
2022/03/14 03:28:02;;;;;;;15.13;1.55;;;;;;;;;;4965376;28;20126;-83
2022/03/14 03:30:27;;;;;;;8.65;1.38;;;;;;;;;;4952959;28;20608;-84
2022/03/14 03:32:53;;;;;;;15.43;1.65;;;;;;;;;;4985666;28;20022;-82
2022/03/14 03:35:18;;;;;;;11.10;1.50;;;;;;;;;;4968503;28;20149;-83
2022/03/14 03:37:44;;;;;;;9.15;1.38;;;;;;;;;;4948624;28;20034;-82
2022/03/14 03:40:10;;;;;;;8.00;1.02;;;;;;;;;;4967237;28;20038;-84
2022/03/14 03:42:35;;;;;;;6.22;1.25;;;;;;;;;;4953284;28;20030;-85
2022/03/14 03:45:05;;;;;;;17.17;1.73;;;;;;;;;;4981822;28;20053;-85
2022/03/14 03:47:31;;;;;;;14.13;2.30;;;;;;;;;;4956859;28;20061;-85
2022/03/14 03:49:57;;;;;;;18.40;1.70;;;;;;;;;;4958541;28;20125;-85
2022/03/14 03:52:25;;;;;;;8.75;1.70;;;;;;;;;;4981192;28;20169;-86
2022/03/14 03:54:51;;;;;;;12.48;1.45;;;;;;;;;;4973667;28;20506;-84
2022/03/14 03:57:16;;;;;;;12.68;1.60;;;;;;;;;;4947866;28;20038;-86
2022/03/14 03:59:42;;;;;;;12.30;2.13;;;;;;;;;;4946000;28;20243;-84
2022/03/14 04:02:08;;;;;;;10.63;1.42;;;;;;;;;;4950238;28;20572;-82
2022/03/14 04:04:36;;;;;;;14.75;1.60;;;;;;;;;;4956729;28;20109;-84
2022/03/14 04:07:02;;;;;;;6.60;1.08;;;;;;;;;;4953618;28;20034;-81
2022/03/14 04:09:27;;;;;;;15.98;1.20;;;;;;;;;;4982170;28;20073;-82
2022/03/14 04:11:53;;;;;;;25.80;1.90;;;;;;;;;;4983289;28;20054;-82
2022/03/14 04:14:20;;;;;;;10.23;1.60;;;;;;;;;;4949104;28;20031;-83
2022/03/14 04:16:46;;;;;;;17.38;1.48;;;;;;;;;;4934501;28;20034;-84
2022/03/14 04:19:11;;;;;;;9.98;1.08;;;;;;;;;;4968486;28;20040;-83
2022/03/14 04:21:38;;;;;;;20.17;1.80;;;;;;;;;;4936466;28;20517;-83
2022/03/14 04:24:06;;;;;;;9.23;1.33;;;;;;;;;;4934494;28;20042;-84
2022/03/14 04:26:32;;;;;;;14.20;1.92;;;;;;;;;;4948099;28;20395;-81
2022/03/14 04:28:58;;;;;;;11.98;2.00;;;;;;;;;;4979171;28;20240;-81
2022/03/14 04:31:23;;;;;;;10.90;1.83;;;;;;;;;;4948919;28;20030;-82
2022/03/14 04:33:49;;;;;;;7.22;1.60;;;;;;;;;;4982151;28;20054;-83
2022/03/14 04:36:15;;;;;;;7.53;1.40;;;;;;;;;;4965423;28;20133;-83
2022/03/14 04:38:41;;;;;;;14.23;1.30;;;;;;;;;;4949592;28;20399;-83
2022/03/14 04:41:07;;;;;;;13.35;1.23;;;;;;;;;;4964255;28;20038;-84
2022/03/14 04:43:32;;;;;;;12.07;1.52;;;;;;;;;;4981604;28;20097;-82
2022/03/14 04:45:58;;;;;;;6.10;1.05;;;;;;;;;;4961594;28;20447;-84
2022/03/14 04:48:23;;;;;;;10.10;1.45;;;;;;;;;;4948119;28;20046;-84
2022/03/14 04:50:50;;;;;;;8.43;1.60;;;;;;;;;;4949070;28;20129;-83
2022/03/14 04:53:17;;;;;;;15.25;1.98;;;;;;;;;;4963934;28;20141;-82
2022/03/14 04:55:43;;;;;;;13.02;1.27;;;;;;;;;;4946030;28;20111;-82
2022/03/14 04:58:12;;;;;;;11.93;1.30;;;;;;;;;;4968664;28;20030;-84
2022/03/14 05:00:38;;;;;;;8.45;1.75;;;;;;;;;;4958354;28;20590;-85
2022/03/14 05:03:05;;;;;;;12.90;1.45;;;;;;;;;;4985385;28;20038;-88
2022/03/14 05:05:31;;;;;;;12.52;0.98;;;;;;;;;;4968348;28;20033;-83
2022/03/14 05:07:57;;;;;;;6.68;1.10;;;;;;;;;;4953344;28;20034;-82
2022/03/14 05:10:23;;;;;;;6.78;1.00;;;;;;;;;;4970313;28;20113;-83
2022/03/14 05:12:49;;;;;;;16.80;1.60;;;;;;;;;;4975541;28;20631;-85
2022/03/14 05:15:16;;;;;;;7.20;0.95;;;;;;;;;;4954254;28;20042;-84
2022/03/14 05:17:42;;;;;;;16.38;1.67;;;;;;;;;;4975877;28;20088;-87
2022/03/14 05:20:11;;;;;;;10.35;1.10;;;;;;;;;;4971347;28;20085;-84
2022/03/14 05:22:45;;;;;;;6.68;1.05;;;;;;;;;;4952089;28;20518;-84
2022/03/14 05:25:11;;;;;;;25.27;1.83;;;;;;;;;;4967060;28;20556;-85
2022/03/14 05:27:37;;;;;;;10.18;1.42;;;;;;;;;;4968145;28;20251;-82
2022/03/14 05:30:06;;;;;;;10.73;1.23;;;;;;;;;;4985216;28;20826;-85
2022/03/14 05:32:31;;;;;;;6.35;1.42;;;;;;;;;;4960385;28;20134;-85
2022/03/14 05:34:57;;;;;;;10.45;1.13;;;;;;;;;;4945230;28;20603;-82
2022/03/14 05:37:22;;;;;;;9.75;1.00;;;;;;;;;;4965769;28;20031;-83
2022/03/14 05:39:48;;;;;;;6.15;1.58;;;;;;;;;;4948868;28;20030;-83
2022/03/14 05:42:14;;;;;;;15.80;1.05;;;;;;;;;;4948982;28;20034;-83
2022/03/14 05:44:45;;;;;;;12.55;2.63;;;;;;;;;;4950662;28;20043;-82
2022/03/14 05:47:11;;;;;;;8.88;0.95;;;;;;;;;;4958114;28;20051;-81
2022/03/14 05:49:37;;;;;;;11.57;0.88;;;;;;;;;;4943851;28;20051;-81
2022/03/14 05:52:04;;;;;;;14.95;1.83;;;;;;;;;;4966251;28;20050;-83
2022/03/14 05:54:30;;;;;;;10.05;1.80;;;;;;;;;;4935972;28;20043;-86
2022/03/14 05:56:55;;;;;;;9.18;1.30;;;;;;;;;;4933743;28;20054;-83
2022/03/14 05:59:21;;;;;;;9.43;1.67;;;;;;;;;;4935035;28;20043;-83
2022/03/14 06:01:48;;;;;;;6.95;0.73;;;;;;;;;;4941416;28;20783;-84
2022/03/14 06:04:14;;;;;;;10.55;1.08;;;;;;;;;;4933832;28;20043;-85
2022/03/14 06:06:40;;;;;;;12.30;1.48;;;;;;;;;;4954468;28;20037;-83
2022/03/14 06:09:05;;;;;;;9.32;1.23;;;;;;;;;;4952936;28;20053;-85
2022/03/14 06:11:31;;;;;;;10.80;1.85;;;;;;;;;;4946413;28;20173;-84
2022/03/14 06:13:56;;;;;;;6.90;1.17;;;;;;;;;;4950832;28;20035;-85
2022/03/14 06:16:22;;;;;;;8.93;1.45;;;;;;;;;;4950345;28;20668;-85
2022/03/14 06:18:48;;;;;;;15.35;2.10;;;;;;;;;;4955950;28;20042;-83
2022/03/14 06:21:14;;;;;;;11.07;1.13;;;;;;;;;;4947290;28;20092;-82
2022/03/14 06:23:40;;;;;;;14.68;1.30;;;;;;;;;;4953720;28;20930;-84
2022/03/14 06:26:05;;;;;;;13.85;1.17;;;;;;;;;;4955333;28;20109;-84
2022/03/14 06:28:31;;;;;;;9.63;1.38;;;;;;;;;;4933313;28;20186;-85
2022/03/14 06:30:56;;;;;;;11.13;1.90;;;;;;;;;;4938797;28;20053;-81
2022/03/14 06:33:22;;;;;;;10.43;1.40;;;;;;;;;;4929985;28;20034;-87
2022/03/14 06:35:47;;;;;;;10.85;1.63;;;;;;;;;;4959767;28;20069;-83
2022/03/14 06:40:54;;;;;;;8.55;1.15;;;;;;;;;;4764473;23;20453;-78
2022/03/14 06:43:22;;;;;;;13.70;2.13;;;;;;;;;;4985145;28;20072;-82
2022/03/14 06:45:48;;;;;;;12.15;1.02;;;;;;;;;;4967180;28;20485;-79
2022/03/14 06:48:14;;;;;;;16.13;1.58;;;;;;;;;;4974015;28;20038;-79
2022/03/14 06:50:39;;;;;;;8.23;1.00;;;;;;;;;;4987642;28;20033;-80
2022/03/14 06:53:05;;;;;;;6.65;1.58;;;;;;;;;;5000936;28;20122;-81
2022/03/14 06:55:30;;;;;;;8.85;0.98;;;;;;;;;;4999300;28;20430;-78
2022/03/14 06:57:56;;;;;;;12.15;1.13;;;;;;;;;;4989932;28;20060;-78
2022/03/14 07:00:23;;;;;;;8.88;1.63;;;;;;;;;;5017477;28;20168;-78
2022/03/14 07:02:48;;;;;;;12.68;2.28;;;;;;;;;;5011204;28;20025;-78
2022/03/14 07:05:20;;;;;;;6.88;0.90;;;;;;;;;;4988450;28;20036;-78
2022/03/14 07:07:53;;;;;;;12.68;1.40;;;;;;;;;;4985557;28;20056;-80
2022/03/14 07:10:19;;;;;;;;;;;;;;;;;;5019397;28;20576;-78
2022/03/14 07:12:46;;;;;;;10.40;1.10;;;;;;;;;;5005825;28;20027;-82
2022/03/14 07:15:22;;;;;;;10.25;1.33;;;;;;;;;;5006805;28;20084;-81
2022/03/14 07:17:48;;;;;;;10.93;1.50;;;;;;;;;;4999717;28;20045;-77
2022/03/14 07:20:14;;;;;;;13.68;1.33;;;;;;;;;;4998220;28;20070;-80
2022/03/14 07:22:49;;;;;;;12.60;1.15;;;;;;;;;;5011980;28;20036;-78
2022/03/14 07:25:18;;;;;;;9.30;1.75;;;;;;;;;;5016832;28;20025;-79
2022/03/14 07:27:44;;;;;;;22.50;2.22;;;;;;;;;;5015245;28;20666;-78
2022/03/14 07:30:10;;;;;;;10.15;1.27;;;;;;;;;;5014054;28;20038;-78
2022/03/14 07:32:35;;;;;;;13.88;1.23;;;;;;;;;;4977775;28;20167;-78
2022/03/14 07:35:01;;;;;;;7.13;1.30;;;;;;;;;;4970837;28;20789;-79
2022/03/14 07:37:26;;;;;;;21.23;2.10;;;;;;;;;;4968746;28;20025;-77
2022/03/14 07:39:52;;;;;;;9.05;1.55;;;;;;;;;;4997431;28;20045;-78
2022/03/14 07:42:17;;;;;;;10.23;1.65;;;;;;;;;;4993805;28;20054;-78
2022/03/14 07:44:43;;;;;;;17.52;1.40;;;;;;;;;;4981559;28;20111;-78
2022/03/14 07:47:10;;;;;;;16.75;1.73;;;;;;;;;;4967097;28;20988;-78
2022/03/14 07:49:36;;;;;;;14.23;1.55;;;;;;;;;;4967249;28;20022;-80
2022/03/14 07:52:02;;;;;;;10.02;1.45;;;;;;;;;;4984359;28;20571;-78
2022/03/14 07:54:28;;;;;;;15.23;1.42;;;;;;;;;;4974500;28;20081;-79
2022/03/14 07:56:53;;;;;;;16.42;2.53;;;;;;;;;;4997839;28;20034;-78
2022/03/14 07:59:19;;;;;;;19.23;1.48;;;;;;;;;;4982522;28;20053;-78
2022/03/14 08:01:44;;;;;;;13.32;1.75;;;;;;;;;;4952013;28;20046;-78
2022/03/14 08:04:10;;;;;;;11.07;1.02;;;;;;;;;;4967468;28;20038;-77
2022/03/14 08:06:41;;;;;;;7.47;1.33;;;;;;;;;;4962600;28;20614;-79
2022/03/14 08:09:08;;;;;;;14.18;1.77;;;;;;;;;;4969022;28;20422;-79
2022/03/14 08:11:35;;;;;;;23.77;2.38;;;;;;;;;;4984709;28;20029;-78
2022/03/14 08:14:01;;;;;;;6.35;0.98;;;;;;;;;;4982027;28;20400;-79
2022/03/14 08:16:27;;;;;;;15.90;2.22;;;;;;;;;;4979521;28;20033;-78
2022/03/14 08:18:53;;;;;;;21.05;1.38;;;;;;;;;;5004128;28;20038;-79
2022/03/14 08:21:18;;;;;;;18.80;1.65;;;;;;;;;;4981709;28;20056;-80
2022/03/14 08:23:45;;;;;;;17.05;1.55;;;;;;;;;;4974650;28;20061;-78
2022/03/14 08:26:11;;;;;;;19.75;1.95;;;;;;;;;;5000947;28;20542;-80
2022/03/14 08:28:36;;;;;;;11.45;1.73;;;;;;;;;;4971263;28;20037;-78
2022/03/14 08:31:02;;;;;;;6.68;1.58;;;;;;;;;;4989473;28;20030;-79
2022/03/14 08:33:29;;;;;;;13.55;1.02;;;;;;;;;;4972062;28;20046;-80
2022/03/14 08:35:59;;;;;;;11.93;1.48;;;;;;;;;;4975578;28;20059;-78
2022/03/14 08:38:25;;;;;;;7.72;1.30;;;;;;;;;;4990104;28;20034;-79
2022/03/14 08:41:36;;;;;;;8.38;1.40;;;;;;;;;;5004443;28;20488;-80
2022/03/14 08:46:52;;;;;;;16.25;2.42;;;;;;;;;;3405249;29;41238362;-80
2022/03/14 08:49:17;;;;;;;10.65;1.52;;;;;;;;;;4877944;28;20071;-80
2022/03/14 08:51:43;;;;;;;18.40;2.40;;;;;;;;;;4958346;28;20038;-81
2022/03/14 08:54:08;;;;;;;22.63;1.85;;;;;;;;;;4975818;28;20493;-80
2022/03/14 08:56:34;;;;;;;10.65;1.25;;;;;;;;;;4988544;28;20077;-79
2022/03/14 08:58:59;;;;;;;7.55;1.20;;;;;;;;;;4969685;28;20030;-78
2022/03/14 09:01:25;;;;;;;5.25;1.65;;;;;;;;;;5004551;28;20021;-79
2022/03/14 09:03:51;;;;;;;6.30;1.17;;;;;;;;;;4983623;28;20022;-83
2022/03/14 09:06:17;;;;;;;18.63;1.80;;;;;;;;;;4965913;28;20034;-78
2022/03/14 09:08:43;;;;;;;10.50;1.42;;;;;;;;;;4969307;28;20071;-80
2022/03/14 09:11:09;;;;;;;9.98;1.92;;;;;;;;;;5005252;28;20042;-78
2022/03/14 09:16:09;;;;;;;13.32;2.05;;;;;;;;;;5382661;23;20088;-84
2022/03/14 09:18:35;;;;;;;6.18;1.10;;;;;;;;;;4997690;28;20025;-83
2022/03/14 09:21:02;;;;;;;6.15;0.70;;;;;;;;;;5000956;28;20037;-84
2022/03/14 09:23:27;;;;;;;11.65;1.35;;;;;;;;;;5020361;28;20111;-83
2022/03/14 09:25:55;;;;;;;14.20;1.83;;;;;;;;;;4990410;28;20155;-82
2022/03/14 09:28:20;;;;;;;6.30;0.88;;;;;;;;;;5004031;28;20025;-81
2022/03/14 09:30:47;;;;;;;11.07;1.73;;;;;;;;;;5022938;28;20056;-83
2022/03/14 09:33:12;;;;;;;12.93;1.33;;;;;;;;;;5006761;28;20056;-83
2022/03/14 09:35:38;;;;;;;7.95;1.40;;;;;;;;;;5005137;28;20061;-84
2022/03/14 09:38:04;;;;;;;5.38;0.93;;;;;;;;;;5021682;28;20116;-83
2022/03/14 09:40:38;;;;;;;12.85;2.20;;;;;;;;;;4996964;28;20028;-83
2022/03/14 09:43:05;;;;;;;9.50;1.45;;;;;;;;;;5012425;28;20040;-76
2022/03/14 09:45:34;;;;;;;15.85;1.73;;;;;;;;;;4998564;28;20113;-80
2022/03/14 09:48:02;;;;;;;11.85;1.67;;;;;;;;;;5023268;28;20032;-85
2022/03/14 09:50:37;;;;;;;7.20;1.38;;;;;;;;;;5001681;28;20116;-81
2022/03/14 09:53:08;;;;;;;8.20;1.15;;;;;;;;;;5008341;28;20459;-81
2022/03/14 09:55:38;;;;;;;8.27;1.17;;;;;;;;;;5005252;28;20022;-82
2022/03/14 09:58:04;;;;;;;5.00;1.02;;;;;;;;;;4998538;28;20061;-81
2022/03/14 10:00:30;;;;;;;10.50;2.08;;;;;;;;;;5006415;28;20068;-82
2022/03/14 10:02:56;;;;;;;5.95;2.42;;;;;;;;;;4974553;28;20025;-81
2022/03/14 10:05:24;;;;;;;9.85;1.80;;;;;;;;;;5006058;28;20030;-81
2022/03/14 10:07:50;;;;;;;13.30;1.40;;;;;;;;;;5002136;28;20506;-82
2022/03/14 10:10:16;;;;;;;3.67;1.00;;;;;;;;;;5003027;28;20053;-81
2022/03/14 10:12:44;;;;;;;8.77;1.17;;;;;;;;;;4991615;28;20657;-80
2022/03/14 10:15:10;;;;;;;4.70;1.00;;;;;;;;;;5018808;28;20068;-80
2022/03/14 10:17:36;;;;;;;10.45;0.88;;;;;;;;;;4985210;28;20037;-81
2022/03/14 10:20:07;;;;;;;9.20;1.55;;;;;;;;;;4973489;28;20034;-81
2022/03/14 10:22:36;;;;;;;16.40;1.35;;;;;;;;;;4987890;28;20041;-80
2022/03/14 10:25:15;;;;;;;4.18;0.75;;;;;;;;;;4990296;28;20482;-80
2022/03/14 10:27:45;;;;;;;5.00;1.13;;;;;;;;;;4990274;28;20021;-83
2022/03/14 10:30:29;;;;;;;12.30;1.45;;;;;;;;;;4984326;28;20075;-81
2022/03/14 10:33:01;;;;;;;5.75;0.90;;;;;;;;;;4989063;28;20445;-82
2022/03/14 10:35:27;;;;;;;;;;;;;;;;;;5008582;28;20033;-80
2022/03/14 10:38:02;;;;;;;6.63;1.35;;;;;;;;;;4987870;28;19925;-80
2022/03/14 10:40:32;;;;;;;14.23;2.17;;;;;;;;;;4992014;28;20021;-81
2022/03/14 10:42:58;;;;;;;13.07;1.42;;;;;;;;;;4984446;28;20108;-83
2022/03/14 10:45:24;;;;;;;7.45;1.23;;;;;;;;;;4989286;28;20591;-80
2022/03/14 10:47:56;;;;;;;5.65;0.88;;;;;;;;;;4971883;28;20034;-82
2022/03/14 10:50:29;;;;;;;13.80;1.55;;;;;;;;;;5002203;28;20042;-80
2022/03/14 10:53:12;;;;;;;4.20;1.13;;;;;;;;;;4985162;28;20030;-85
2022/03/14 10:55:41;;;;;;;8.85;1.17;;;;;;;;;;5006178;28;20025;-80
2022/03/14 10:58:17;;;;;;;10.45;1.23;;;;;;;;;;5005769;28;20030;-83
2022/03/14 11:00:50;;;;;;;6.15;0.90;;;;;;;;;;4999961;28;20026;-79
2022/03/14 11:03:23;;;;;;;4.38;1.00;;;;;;;;;;4982987;28;20033;-83
2022/03/14 11:05:49;;;;;;;4.13;0.88;;;;;;;;;;4978400;28;20387;-81
2022/03/14 11:08:38;;;;;;;11.00;1.20;;;;;;;;;;4974366;28;20526;-81
2022/03/14 11:11:19;;;;;;;4.25;0.95;;;;;;;;;;5003478;28;20049;-80
2022/03/14 11:13:50;;;;;;;4.95;1.15;;;;;;;;;;4987615;28;20033;-81
2022/03/14 11:16:21;;;;;;;6.65;1.35;;;;;;;;;;4963272;28;20065;-81
2022/03/14 11:18:47;;;;;;;5.00;0.95;;;;;;;;;;4984194;28;20058;-84
2022/03/14 11:21:16;;;;;;;4.20;1.05;;;;;;;;;;4971274;28;20108;-82
2022/03/14 11:23:43;;;;;;;3.63;0.88;;;;;;;;;;4970590;28;20519;-80
2022/03/14 11:26:11;;;;;;;7.78;0.98;;;;;;;;;;4988764;28;20044;-81
2022/03/14 11:28:41;;;;;;;5.35;1.00;;;;;;;;;;4985795;28;20451;-80
2022/03/14 11:31:07;;;;;;;3.50;0.90;;;;;;;;;;5001583;28;20109;-82
2022/03/14 11:33:35;;;;;;;3.22;0.70;;;;;;;;;;4990521;28;20033;-81
2022/03/14 11:36:02;;;;;;;7.88;0.85;;;;;;;;;;4982878;28;20440;-80
2022/03/14 11:38:28;;;;;;;3.35;0.90;;;;;;;;;;5003984;28;20532;-80
2022/03/14 11:40:55;;;;;;;7.78;1.25;;;;;;;;;;4966966;28;20030;-81
2022/03/14 11:43:21;;;;;;;4.07;0.95;;;;;;;;;;4984767;28;20064;-82
2022/03/14 11:45:47;;;;;;;5.47;1.23;;;;;;;;;;4972535;28;20029;-82
2022/03/14 11:48:13;;;;;;;3.38;0.95;;;;;;;;;;4970669;28;20458;-82
2022/03/14 11:51:12;;;;;;;6.88;0.65;;;;;;;;;;4999366;28;20055;-81
2022/03/14 11:56:21;;;;;;;10.15;0.98;;;;;;;;;;4974443;28;20050;-82
2022/03/14 11:58:49;;;;;;;6.72;0.88;;;;;;;;;;4951244;28;20045;-81
2022/03/14 12:01:18;;;;;;;2.42;1.02;;;;;;;;;;4966731;28;20478;-82
2022/03/14 12:03:56;;;;;;;4.38;0.88;;;;;;;;;;4969742;28;20156;-82
2022/03/14 12:06:46;;;;;;;4.85;1.17;;;;;;;;;;4972015;28;20113;-81
2022/03/14 12:09:24;;;;;;;5.85;1.38;;;;;;;;;;4967909;28;20093;-83
2022/03/14 12:11:57;;;;;;;3.28;0.88;;;;;;;;;;4991407;28;20096;-82
2022/03/14 12:14:47;;;;;;;3.97;0.98;;;;;;;;;;4987032;28;20034;-84
2022/03/14 12:17:13;;;;;;;7.35;1.00;;;;;;;;;;4969828;28;20061;-84
2022/03/14 12:19:46;;;;;;;6.45;1.38;;;;;;;;;;4984027;28;20408;-81
2022/03/14 12:22:15;;;;;;;4.93;1.10;;;;;;;;;;4988124;28;20034;-82
2022/03/14 12:24:48;;;;;;;8.82;0.93;;;;;;;;;;4981266;28;20030;-83
2022/03/14 12:27:20;;;;;;;8.18;1.25;;;;;;;;;;4968258;28;20108;-83
2022/03/14 12:29:47;;;;;;;4.32;1.00;;;;;;;;;;4977743;28;20137;-83
2022/03/14 12:32:30;;;;;;;6.95;1.27;;;;;;;;;;4988238;28;20046;-83
2022/03/14 12:35:34;;;;;;;13.30;1.40;;;;;;;;;;4986777;28;20030;-82
2022/03/14 12:38:14;;;;;;;6.18;1.30;;;;;;;;;;4914749;28;20118;-82
2022/03/14 12:40:43;;;;;;;5.15;1.23;;;;;;;;;;4984699;28;20049;-81
2022/03/14 12:43:31;;;;;;;10.80;1.73;;;;;;;;;;4969308;28;20033;-83
2022/03/14 12:45:59;;;;;;;7.20;1.35;;;;;;;;;;4985462;28;20076;-82
2022/03/14 12:48:34;;;;;;;6.63;1.13;;;;;;;;;;4974128;28;20037;-83
2022/03/14 12:51:03;;;;;;;4.45;0.73;;;;;;;;;;4971556;28;20053;-81
2022/03/14 12:53:32;;;;;;;5.00;1.50;;;;;;;;;;4983283;28;20578;-83
2022/03/14 12:56:00;;;;;;;6.00;1.50;;;;;;;;;;4964294;28;20047;-80
2022/03/14 12:58:30;;;;;;;5.80;1.25;;;;;;;;;;4950755;28;20097;-83
2022/03/14 13:01:00;;;;;;;6.50;1.27;;;;;;;;;;4943713;28;20035;-82
2022/03/14 13:03:37;;;;;;;2.30;0.82;;;;;;;;;;4939773;28;20031;-81
2022/03/14 13:06:07;;;;;;;9.52;1.33;;;;;;;;;;4975607;28;20043;-83
2022/03/14 13:08:44;;;;;;;7.30;1.27;;;;;;;;;;4965731;28;20023;-81
2022/03/14 13:11:09;;;;;;;8.05;1.25;;;;;;;;;;4954118;28;20473;-83
2022/03/14 13:13:38;;;;;;;8.93;1.63;;;;;;;;;;4940779;28;20118;-82
2022/03/14 13:16:11;;;;;;;2.47;0.90;;;;;;;;;;4967768;28;20027;-83
2022/03/14 13:18:43;;;;;;;5.00;1.02;;;;;;;;;;4973754;28;20031;-79
2022/03/14 13:21:12;;;;;;;6.18;1.20;;;;;;;;;;4958611;28;20044;-83
2022/03/14 13:23:38;;;;;;;3.88;0.93;;;;;;;;;;4952471;28;20116;-82
2022/03/14 13:26:04;;;;;;;4.97;1.23;;;;;;;;;;4956197;28;20023;-82
2022/03/14 13:28:31;;;;;;;8.02;1.13;;;;;;;;;;4931630;28;20090;-83
2022/03/14 13:30:59;;;;;;;8.32;1.10;;;;;;;;;;4968727;28;20035;-82
2022/03/14 13:33:33;;;;;;;7.78;1.27;;;;;;;;;;4951957;28;20030;-79
2022/03/14 13:36:04;;;;;;;2.78;0.90;;;;;;;;;;4969865;28;20023;-81
2022/03/14 13:38:35;;;;;;;11.03;1.30;;;;;;;;;;4972764;28;20117;-81
2022/03/14 13:41:05;;;;;;;7.90;0.90;;;;;;;;;;4951686;28;20355;-82
2022/03/14 13:43:31;;;;;;;8.48;1.00;;;;;;;;;;4963728;28;20299;-82
2022/03/14 13:46:23;;;;;;;8.55;1.40;;;;;;;;;;4965865;28;20484;-81
2022/03/14 13:48:50;;;;;;;6.90;0.82;;;;;;;;;;4969837;28;20110;-82
2022/03/14 13:51:16;;;;;;;5.95;0.90;;;;;;;;;;4934812;28;20047;-82
2022/03/14 13:53:46;;;;;;;7.97;1.00;;;;;;;;;;4967986;28;20037;-83
2022/03/14 13:56:12;;;;;;;2.75;0.90;;;;;;;;;;4963265;28;20499;-83
2022/03/14 13:58:39;;;;;;;8.02;1.10;;;;;;;;;;4955987;28;20093;-83
2022/03/14 14:01:05;;;;;;;6.75;1.38;;;;;;;;;;4938107;28;20089;-81
2022/03/14 14:06:16;;;;;;;5.28;1.48;;;;;;;;;;5307669;23;20058;-83
2022/03/14 14:08:42;;;;;;;8.40;1.00;;;;;;;;;;4987547;28;20034;-80
2022/03/14 14:11:09;;;;;;;10.63;1.85;;;;;;;;;;4980379;28;20038;-81
2022/03/14 14:13:50;;;;;;;8.18;1.10;;;;;;;;;;5003023;28;20026;-79
2022/03/14 14:16:22;;;;;;;6.30;1.08;;;;;;;;;;4995272;28;20180;-81
2022/03/14 14:19:14;;;;;;;7.35;1.55;;;;;;;;;;4985466;28;20060;-79
2022/03/14 14:21:53;;;;;;;13.38;2.10;;;;;;;;;;5004539;28;20038;-80
2022/03/14 14:24:23;;;;;;;7.25;1.75;;;;;;;;;;4979193;28;20041;-80
2022/03/14 14:26:49;;;;;;;8.82;1.90;;;;;;;;;;4986891;28;20039;-80
2022/03/14 14:29:53;;;;;;;11.35;1.38;;;;;;;;;;4996080;28;20125;-79
2022/03/14 14:32:20;;;;;;;11.38;1.60;;;;;;;;;;4981512;28;20041;-79
2022/03/14 14:34:46;;;;;;;9.13;2.13;;;;;;;;;;4993112;28;20746;-80
2022/03/14 14:37:11;;;;;;;16.35;1.20;;;;;;;;;;4971398;28;20035;-79
2022/03/14 14:39:38;;;;;;;10.60;1.38;;;;;;;;;;4984937;28;20042;-79
2022/03/14 14:42:06;;;;;;;8.68;1.63;;;;;;;;;;4979551;28;20581;-77
2022/03/14 14:44:31;;;;;;;5.30;1.13;;;;;;;;;;4987844;28;20125;-81
2022/03/14 14:46:57;;;;;;;10.82;1.35;;;;;;;;;;4986978;28;20412;-80
2022/03/14 14:49:22;;;;;;;8.50;1.27;;;;;;;;;;4972672;28;20042;-83
2022/03/14 14:51:48;;;;;;;5.88;1.05;;;;;;;;;;4947981;28;20206;-81
2022/03/14 14:54:13;;;;;;;11.30;1.52;;;;;;;;;;4948566;28;20088;-79